Aérodrome :
LOGIN :

S'inscrire | Disclaimer

   EN    FR    IT 

 










Légende :    VFR   VFR Marginal   IFR   IFR Intensif   IFR Très Intensif
Visi : 
Plafond : 
>= 8 km
>= 3000ft
5 à 8 km
1000 à 3000 ft
1500m à 5 km
500 à 1000 ft
800 à 1500m
200 à 500 ft
< 800m
< 200 ft
Symboles :   Orages  Brouillard  Fortes neiges  Fortes précipitations  Vent > 20 kt
SIGMETs :   Divers  Orages  Givrage  Turbulence  Onde Orograph.  Cendres Volcan.







- Altitude de l'aérodrome : 255 ft


ENGC - Gullfaks C oil platform

DERNIER METAR :
  • 241950Z 13027KT CAVOK 13/02 Q1008 W11/S3

METARs EXPIRÉS :
  • 241850Z 14026KT CAVOK 12/03 Q1008 W11/S3
  • 241750Z 13031KT CAVOK 15/00 Q1008 W14/S4
  • 241720Z 13032KT CAVOK 15/M01 Q1008 W13/S4

TAF TAF ENGC
Valide du 24 à 18h jusqu'au 25 à 18h UTC


2418/2518 11030KT CAVOK
TEMPO 2421/2501 RA
TEMPO 2501/2512 SHRA BKN025CB
PROB30
TEMPO 2502/2506 TS
BECMG 2509/2511 11020KT
BECMG 2512/2514 17020KT
Pas de NOTAMs connus pour ce terrain.
1 SIGMET publié pour la FIR Norway (ENOR) :
 
Onde orographique forte
ENSV SIGMET B06 VALID 242000/250000 ENVV
ENOR NORWAY FIR SEV MTW FCST WI N5800 E00730 - N5825 E00550 - N6200 E00500 - N6200 E00730 - N5800 E00730 SFC/FL180 STNR WKN=



MET'MAP, la Météo Aéronautique d'un coup d'oeil ! - Copyright ORBIFLY Décembre 2007 - Disclaimer

ORBIFLY MET'MAP TEAM :

Programmation & Développement : Alexandra Zaïnal
Conception & Développement : Baudouin d'Aumeries
Co-Programmation & Développement : Marc-Olivier Méhu
Soutien technique & logistique : Manuel Goepfert

Contact : metmap@orbifly.com




SOURCES & CREDITS :

   NOAA